Air Quality Table

TIMESTAMP NO2 O3 PM2.5 TEMP HUM AIRPRES WS WD NO
2022-11-30 11:00 27.81 µg/m3 42.35 µg/m3 -0.64 µg/m3 12.14 °C N/A 997.34 mbar 0.5 m/s 305.57 Deg 2.63 µg/m3
2022-11-30 10:00 44.16 µg/m3 25.19 µg/m3 3.01 µg/m3 11.94 °C N/A 997.17 mbar 0.61 m/s 293.71 Deg 8.26 µg/m3
2022-11-30 09:00 33.81 µg/m3 41.8 µg/m3 5.56 µg/m3 11.57 °C N/A 997.09 mbar 0.94 m/s 257.38 Deg 5.23 µg/m3
2022-11-30 08:00 63.32 µg/m3 6 µg/m3 1.99 µg/m3 11.52 °C N/A 996.71 mbar 0.37 m/s 278.53 Deg 49.77 µg/m3
2022-11-30 07:00 46.27 µg/m3 21.44 µg/m3 0.8 µg/m3 11.75 °C N/A 996.35 mbar 0.36 m/s 287.09 Deg 3.84 µg/m3
2022-11-30 06:00 8.16 µg/m3 68.28 µg/m3 -2.43 µg/m3 11.58 °C N/A 996.28 mbar 0.53 m/s 302.17 Deg 0.33 µg/m3
2022-11-30 05:00 5.09 µg/m3 65.49 µg/m3 0.89 µg/m3 11.32 °C N/A 995.88 mbar 0.97 m/s 304.3 Deg 0.27 µg/m3
2022-11-30 04:00 3.31 µg/m3 56.24 µg/m3 0.29 µg/m3 11.48 °C N/A 995.71 mbar 0.29 m/s 318.23 Deg 0.22 µg/m3
2022-11-30 03:00 4.47 µg/m3 56.18 µg/m3 0.04 µg/m3 11.82 °C N/A 995.74 mbar 0.4 m/s 315.36 Deg 0.24 µg/m3
2022-11-30 02:00 9.55 µg/m3 56.71 µg/m3 -0.05 µg/m3 11.96 °C N/A 995.75 mbar 0.46 m/s 326.4 Deg 0.25 µg/m3
2022-11-30 01:00 4.32 µg/m3 64.67 µg/m3 -0.81 µg/m3 12 °C N/A 996.02 mbar 0.4 m/s 313.92 Deg 0.24 µg/m3
2022-11-30 00:00 6.04 µg/m3 70.55 µg/m3 -0.13 µg/m3 12.01 °C N/A 996.36 mbar 0.51 m/s 310.98 Deg 0.27 µg/m3
2022-11-29 23:00 8.42 µg/m3 71.62 µg/m3 3.01 µg/m3 11.6 °C N/A 996.32 mbar 0.79 m/s 299.42 Deg 0.27 µg/m3
2022-11-29 22:00 10 µg/m3 75.55 µg/m3 5.64 µg/m3 11.6 °C N/A 996.32 mbar 1.15 m/s 254.38 Deg 0.45 µg/m3
2022-11-29 21:00 42.17 µg/m3 23.65 µg/m3 4.88 µg/m3 12.58 °C N/A 995.81 mbar 0.81 m/s 315.69 Deg 1.36 µg/m3
2022-11-29 20:00 59.3 µg/m3 14.46 µg/m3 9.38 µg/m3 12.7 °C N/A 995.55 mbar 0.64 m/s 257.66 Deg 6.45 µg/m3
2022-11-29 19:00 28.86 µg/m3 55.27 µg/m3 -0.3 µg/m3 13.15 °C N/A 995.43 mbar 1 m/s 248.23 Deg 1.41 µg/m3
2022-11-29 18:00 21.35 µg/m3 64.22 µg/m3 0.55 µg/m3 13.41 °C N/A 995.24 mbar 1.35 m/s 227.77 Deg 1.47 µg/m3
2022-11-29 17:00 17.88 µg/m3 65.11 µg/m3 1.31 µg/m3 14.08 °C N/A 994.97 mbar 1.21 m/s 157.02 Deg 1.27 µg/m3
2022-11-29 16:00 20.97 µg/m3 62.89 µg/m3 3.09 µg/m3 14.94 °C N/A 994.80 mbar 2.08 m/s 147.32 Deg 2.08 µg/m3
2022-11-29 15:00 30.71 µg/m3 50.95 µg/m3 2.84 µg/m3 14.75 °C N/A 994.94 mbar 1.69 m/s 166.55 Deg 4.57 µg/m3
2022-11-29 14:00 16.75 µg/m3 67.52 µg/m3 0.12 µg/m3 14.94 °C N/A 995.21 mbar 2.67 m/s 146.37 Deg 2 µg/m3

It is to be noted that the data is provisional and subject to quality assurance procedures. For validated data kindly refer your request to contact.air@era.org.mt